createdAt,value
2023-03-02T00:01:03.097Z,100.00
2023-03-02T00:03:31.034Z,100.00
2023-03-02T00:05:59.423Z,100.00
2023-03-02T00:08:27.740Z,100.00
2023-03-02T00:10:56.608Z,100.00
2023-03-02T00:13:23.563Z,100.00
2023-03-02T00:15:50.187Z,100.00
2023-03-02T00:18:16.635Z,100.00
2023-03-02T00:20:43.204Z,100.00
2023-03-02T00:23:09.748Z,100.00
2023-03-02T00:25:36.409Z,100.00
2023-03-02T00:28:03.588Z,100.00
2023-03-02T00:30:30.198Z,100.00
2023-03-02T00:32:58.471Z,100.00
2023-03-02T00:35:27.103Z,100.00
2023-03-02T00:37:53.679Z,100.00
2023-03-02T00:40:20.543Z,100.00
2023-03-02T00:42:47.166Z,100.00
2023-03-02T00:45:13.699Z,100.00
2023-03-02T00:47:41.575Z,100.00
2023-03-02T00:50:09.515Z,100.00
2023-03-02T00:52:36.095Z,100.00
2023-03-02T00:55:02.695Z,100.00
2023-03-02T00:57:29.222Z,100.00
2023-03-02T00:59:55.751Z,100.00
2023-03-02T01:02:22.274Z,100.00
2023-03-02T01:04:49.439Z,100.00
2023-03-02T01:07:18.343Z,100.00
2023-03-02T01:09:45.901Z,100.00
2023-03-02T01:12:12.495Z,100.00
2023-03-02T01:14:42.575Z,100.00
2023-03-02T01:17:10.242Z,100.00
2023-03-02T01:19:37.235Z,100.00
2023-03-02T01:22:03.806Z,100.00
2023-03-02T01:24:30.561Z,100.00
2023-03-02T01:26:57.082Z,100.00
2023-03-02T01:29:23.782Z,100.00
2023-03-02T01:31:50.358Z,100.00
2023-03-02T01:34:16.979Z,100.00
2023-03-02T01:36:46.058Z,100.00
2023-03-02T01:39:16.415Z,100.00
2023-03-02T01:41:44.221Z,100.00
2023-03-02T01:44:37.086Z,100.00
2023-03-02T01:47:17.282Z,100.00
2023-03-02T01:49:47.530Z,100.00
2023-03-02T01:52:15.619Z,100.00
2023-03-02T01:54:42.842Z,100.00
2023-03-02T01:57:10.825Z,100.00
2023-03-02T01:59:39.312Z,100.00
2023-03-02T02:02:08.987Z,100.00
2023-03-02T02:04:39.753Z,100.00
2023-03-02T02:07:09.204Z,100.00
2023-03-02T02:09:40.600Z,100.00
2023-03-02T02:12:13.607Z,100.00
2023-03-02T02:14:41.161Z,100.00
2023-03-02T02:17:08.387Z,100.00
2023-03-02T02:20:07.312Z,100.00
2023-03-02T02:22:46.530Z,100.00
2023-03-02T02:25:42.389Z,100.00
2023-03-02T02:28:25.193Z,100.00
2023-03-02T02:31:13.555Z,100.00
2023-03-02T02:33:43.537Z,100.00
2023-03-02T02:36:23.729Z,100.00
2023-03-02T02:38:51.806Z,100.00
2023-03-02T02:41:22.552Z,100.00
2023-03-02T02:43:49.829Z,100.00
2023-03-02T02:46:16.662Z,100.00
2023-03-02T02:48:43.145Z,100.00
2023-03-02T02:51:17.920Z,100.00
2023-03-02T02:53:59.049Z,100.00
2023-03-02T02:56:32.359Z,100.00
2023-03-02T02:59:20.750Z,100.00
2023-03-02T03:01:49.175Z,100.00
2023-03-02T03:04:20.944Z,100.00
2023-03-02T03:06:54.265Z,100.00
2023-03-02T03:09:21.591Z,100.00
2023-03-02T03:11:57.038Z,100.00
2023-03-02T03:14:35.788Z,100.00
2023-03-02T03:17:02.719Z,100.00
2023-03-02T03:19:31.984Z,100.00
2023-03-02T03:22:01.315Z,100.00
2023-03-02T03:24:29.463Z,100.00
2023-03-02T03:26:56.239Z,100.00
2023-03-02T03:29:25.206Z,100.00
2023-03-02T03:31:53.712Z,100.00
2023-03-02T03:34:21.399Z,100.00
2023-03-02T03:36:47.991Z,100.00
2023-03-02T03:39:16.655Z,100.00
2023-03-02T03:41:43.560Z,100.00
2023-03-02T03:44:11.263Z,100.00
2023-03-02T03:46:38.023Z,100.00
2023-03-02T03:49:04.939Z,100.00
2023-03-02T03:51:35.244Z,100.00
2023-03-02T03:54:08.083Z,100.00
2023-03-02T03:56:39.287Z,100.00
2023-03-02T03:59:08.107Z,100.00
2023-03-02T04:01:46.227Z,100.00
2023-03-02T04:04:16.197Z,100.00
2023-03-02T04:06:43.106Z,100.00
2023-03-02T04:09:09.803Z,100.00
2023-03-02T04:11:39.269Z,100.00
2023-03-02T04:14:06.906Z,100.00
2023-03-02T04:16:33.745Z,100.00
2023-03-02T04:19:00.632Z,100.00
2023-03-02T04:21:27.912Z,100.00
2023-03-02T04:23:54.619Z,100.00
2023-03-02T04:26:21.183Z,100.00
2023-03-02T04:28:50.866Z,100.00
2023-03-02T04:31:17.932Z,100.00
2023-03-02T04:33:44.893Z,100.00
2023-03-02T04:36:11.491Z,100.00
2023-03-02T04:38:37.997Z,100.00
2023-03-02T04:41:04.816Z,100.00
2023-03-02T04:43:32.386Z,100.00
2023-03-02T04:45:59.337Z,100.00
2023-03-02T04:48:25.954Z,100.00
2023-03-02T04:50:52.629Z,100.00
2023-03-02T04:53:19.177Z,100.00
2023-03-02T04:55:45.883Z,100.00
2023-03-02T04:58:12.467Z,100.00
2023-03-02T05:00:39.284Z,100.00
2023-03-02T05:03:06.360Z,100.00
2023-03-02T05:05:33.542Z,100.00
2023-03-02T05:08:00.327Z,100.00
2023-03-02T05:10:27.846Z,100.00
2023-03-02T05:12:54.850Z,100.00
2023-03-02T05:15:23.041Z,100.00
2023-03-02T05:17:49.576Z,100.00
2023-03-02T05:20:16.643Z,100.00
2023-03-02T05:22:43.185Z,100.00
2023-03-02T05:25:10.009Z,100.00
2023-03-02T05:27:36.891Z,100.00
2023-03-02T05:30:07.248Z,100.00
2023-03-02T05:32:33.863Z,100.00
2023-03-02T05:35:00.503Z,100.00
2023-03-02T05:37:27.053Z,100.00
2023-03-02T05:39:53.561Z,100.00
2023-03-02T05:42:20.161Z,100.00
2023-03-02T05:44:46.803Z,100.00
2023-03-02T05:47:13.367Z,100.00
2023-03-02T05:49:39.897Z,100.00
2023-03-02T05:52:06.365Z,100.00
2023-03-02T05:54:32.893Z,100.00
2023-03-02T05:56:59.406Z,100.00
2023-03-02T05:59:25.881Z,100.00
2023-03-02T06:01:58.622Z,100.00
2023-03-02T06:04:26.165Z,100.00
2023-03-02T06:06:52.765Z,100.00
2023-03-02T06:09:19.318Z,100.00
2023-03-02T06:11:45.830Z,100.00
2023-03-02T06:14:12.393Z,100.00
2023-03-02T06:16:39.012Z,100.00
2023-03-02T06:19:05.589Z,100.00
2023-03-02T06:21:32.444Z,100.00
2023-03-02T06:23:58.996Z,100.00
2023-03-02T06:26:25.691Z,100.00
2023-03-02T06:28:53.928Z,100.00
2023-03-02T06:31:21.354Z,100.00
2023-03-02T06:33:47.947Z,100.00
2023-03-02T06:36:16.953Z,100.00
2023-03-02T06:38:43.591Z,100.00
2023-03-02T06:41:10.217Z,100.00
2023-03-02T06:43:36.823Z,100.00
2023-03-02T06:46:04.186Z,100.00
2023-03-02T06:48:30.751Z,100.00
2023-03-02T06:50:57.313Z,100.00
2023-03-02T06:53:23.868Z,100.00
2023-03-02T06:55:51.231Z,100.00
2023-03-02T06:58:17.984Z,99.20
2023-03-02T07:00:44.698Z,98.18
2023-03-02T07:03:11.521Z,96.51
2023-03-02T07:05:38.180Z,95.12
2023-03-02T07:08:05.039Z,94.91
2023-03-02T07:10:31.722Z,94.08
2023-03-02T07:12:58.232Z,92.23
2023-03-02T07:15:25.506Z,91.36
2023-03-02T07:17:52.136Z,90.02
2023-03-02T07:20:19.247Z,90.03
2023-03-02T07:22:46.116Z,88.47
2023-03-02T07:25:13.612Z,87.15
2023-03-02T07:27:40.579Z,86.83
2023-03-02T07:30:08.490Z,85.08
2023-03-02T07:32:35.305Z,83.80
2023-03-02T07:35:01.924Z,82.19
2023-03-02T07:37:28.453Z,77.29
2023-03-02T07:39:54.949Z,77.11
2023-03-02T07:42:21.494Z,75.59
2023-03-02T07:44:48.155Z,71.94
2023-03-02T07:47:14.734Z,71.95
2023-03-02T07:49:41.244Z,70.37
2023-03-02T07:52:07.828Z,67.48
2023-03-02T07:54:34.425Z,67.74
2023-03-02T07:57:00.978Z,67.03
2023-03-02T07:59:28.865Z,64.70
2023-03-02T08:01:56.649Z,61.85
2023-03-02T08:04:24.176Z,60.44
2023-03-02T08:06:50.766Z,57.77
2023-03-02T08:09:17.590Z,56.24
2023-03-02T08:11:44.966Z,54.11
2023-03-02T08:14:11.694Z,52.71
2023-03-02T08:16:39.564Z,52.21
2023-03-02T08:19:06.959Z,52.29
2023-03-02T08:21:33.855Z,53.23
2023-03-02T08:24:00.650Z,54.18
2023-03-02T08:26:27.260Z,52.39
2023-03-02T08:28:53.811Z,54.39
2023-03-02T08:31:20.447Z,53.53
2023-03-02T08:33:47.125Z,54.06
2023-03-02T08:36:16.897Z,54.91
2023-03-02T08:38:44.779Z,53.51
2023-03-02T08:41:14.378Z,53.40
2023-03-02T08:43:40.956Z,53.81
2023-03-02T08:46:07.816Z,55.08
2023-03-02T08:48:34.499Z,55.47
2023-03-02T08:51:07.195Z,52.88
2023-03-02T08:53:37.372Z,54.46
2023-03-02T08:56:07.280Z,53.77
2023-03-02T09:30:07.388Z,53.80
2023-03-02T09:32:34.069Z,54.54
2023-03-02T09:38:46.988Z,51.79
2023-03-02T10:08:15.249Z,46.08
2023-03-02T10:10:41.663Z,46.38
2023-03-02T10:58:20.073Z,35.92
2023-03-02T11:04:31.007Z,34.47
2023-03-02T11:07:27.947Z,36.31
2023-03-02T11:13:42.188Z,36.00
2023-03-02T11:20:00.477Z,36.98
2023-03-02T11:22:38.678Z,36.27
2023-03-02T11:25:17.906Z,36.88
2023-03-02T11:27:46.097Z,37.23
2023-03-02T11:30:19.526Z,37.36
2023-03-02T11:33:04.070Z,36.33
2023-03-02T11:35:37.148Z,36.23
2023-03-02T11:38:21.556Z,36.26
2023-03-02T11:41:13.957Z,35.40
2023-03-02T11:43:40.454Z,36.13
2023-03-02T11:46:21.577Z,35.66
2023-03-02T11:48:53.527Z,34.18
2023-03-02T11:51:25.830Z,33.40
2023-03-02T11:54:02.723Z,34.42
2023-03-02T11:56:32.009Z,32.76
2023-03-02T11:59:02.971Z,31.23
2023-03-02T12:01:29.831Z,29.13
2023-03-02T12:04:07.819Z,26.52
2023-03-02T12:06:38.718Z,25.17
2023-03-02T12:09:22.205Z,23.05
2023-03-02T12:11:56.949Z,22.27
2023-03-02T12:14:37.223Z,20.58
2023-03-02T12:17:22.204Z,20.49
2023-03-02T12:19:50.959Z,19.84
2023-03-02T12:22:31.274Z,20.62
2023-03-02T12:25:20.843Z,20.56
2023-03-02T12:27:50.116Z,20.78
2023-03-02T12:30:23.759Z,21.65
2023-03-02T12:33:10.210Z,20.40
2023-03-02T12:35:37.814Z,19.94
2023-03-02T12:38:14.371Z,19.64
2023-03-02T12:41:13.356Z,20.90
2023-03-02T12:44:07.209Z,21.40
2023-03-02T12:46:36.122Z,21.93
2023-03-02T12:49:09.611Z,23.11
2023-03-02T12:51:54.922Z,22.20
2023-03-02T12:54:36.468Z,20.99
2023-03-02T12:57:16.312Z,21.20
2023-03-02T12:59:53.564Z,22.60
2023-03-02T13:02:30.303Z,20.93
2023-03-02T13:04:59.440Z,20.06
2023-03-02T13:07:43.468Z,21.40
2023-03-02T13:10:27.352Z,21.91
2023-03-02T13:12:54.141Z,20.53
2023-03-02T13:15:28.254Z,21.15
2023-03-02T13:18:24.059Z,21.38
2023-03-02T13:20:55.697Z,19.42
2023-03-02T13:27:22.383Z,20.22
2023-03-02T13:29:57.777Z,19.56
2023-03-02T13:32:40.560Z,20.30
2023-03-02T13:39:45.020Z,21.79
2023-03-02T13:47:00.019Z,21.14
2023-03-02T13:49:37.004Z,20.69
2023-03-02T13:52:16.766Z,21.51
2023-03-02T13:54:51.272Z,21.23
2023-03-02T13:57:32.775Z,22.18
2023-03-02T14:00:00.208Z,20.59
2023-03-02T14:02:28.873Z,21.07
2023-03-02T14:05:44.808Z,21.62
2023-03-02T14:16:01.110Z,23.50
2023-03-02T14:18:43.144Z,22.79
2023-03-02T14:21:17.550Z,22.24
2023-03-02T14:23:44.834Z,23.72
2023-03-02T14:26:32.237Z,22.75
2023-03-02T14:29:31.547Z,23.24
2023-03-02T14:32:07.864Z,23.23
2023-03-02T14:34:37.416Z,23.27
2023-03-02T14:37:14.871Z,26.58
2023-03-02T14:39:47.686Z,29.12
2023-03-02T14:46:13.388Z,35.53
2023-03-02T14:48:46.080Z,37.46
2023-03-02T14:51:43.183Z,39.67
2023-03-02T14:54:34.303Z,41.26
2023-03-02T14:57:11.128Z,42.77
2023-03-02T14:59:37.656Z,45.21
2023-03-02T15:02:19.069Z,45.68
2023-03-02T15:04:55.025Z,46.22
2023-03-02T15:07:23.301Z,47.76
2023-03-02T15:09:49.877Z,48.28
2023-03-02T15:12:16.371Z,48.61
2023-03-02T15:14:42.870Z,49.33
2023-03-02T15:17:10.591Z,48.88
2023-03-02T15:19:37.080Z,49.44
2023-03-02T15:22:04.835Z,49.76
2023-03-02T15:24:33.256Z,50.18
2023-03-02T15:27:00.503Z,50.54
2023-03-02T15:29:27.016Z,51.44
2023-03-02T15:31:58.174Z,51.42
2023-03-02T15:34:27.110Z,51.50
2023-03-02T15:36:53.618Z,51.82
2023-03-02T15:39:20.180Z,52.52
2023-03-02T15:41:49.162Z,53.04
2023-03-02T15:44:24.172Z,53.67
2023-03-02T15:47:02.608Z,54.12
2023-03-02T15:49:33.379Z,54.27
2023-03-02T15:52:00.150Z,54.13
2023-03-02T15:54:35.838Z,54.86
2023-03-02T15:57:05.046Z,55.30
2023-03-02T15:59:31.985Z,55.07
2023-03-02T16:01:59.677Z,55.66
2023-03-02T16:04:27.150Z,56.11
2023-03-02T16:06:55.094Z,56.71
2023-03-02T16:09:28.295Z,56.16
2023-03-02T16:12:33.101Z,56.17
2023-03-02T16:15:10.814Z,57.14
2023-03-02T16:17:58.128Z,57.26
2023-03-02T16:20:40.627Z,57.87
2023-03-02T16:23:22.659Z,58.02
2023-03-02T16:25:52.348Z,57.54
2023-03-02T16:28:22.165Z,58.41
2023-03-02T16:30:49.327Z,58.33
2023-03-02T16:33:33.529Z,58.41
2023-03-02T16:36:00.143Z,59.44
2023-03-02T16:38:27.670Z,60.18
2023-03-02T16:40:57.130Z,59.68
2023-03-02T16:43:26.466Z,60.54
2023-03-02T16:46:15.898Z,61.07
2023-03-02T16:48:44.041Z,61.39
2023-03-02T16:51:11.349Z,61.93
2023-03-02T16:59:37.722Z,63.20
2023-03-02T17:02:04.638Z,63.26
2023-03-02T17:04:34.859Z,63.03
2023-03-02T17:07:01.776Z,63.18
2023-03-02T17:09:31.254Z,62.72
2023-03-02T17:11:59.288Z,62.34
2023-03-02T17:14:26.380Z,62.94
2023-03-02T17:16:53.924Z,64.71
2023-03-02T17:19:20.673Z,65.12
2023-03-02T17:21:47.286Z,66.36
2023-03-02T17:24:14.067Z,66.32
2023-03-02T17:26:40.998Z,66.06
2023-03-02T17:29:08.126Z,65.58
2023-03-02T17:31:34.723Z,65.97
2023-03-02T17:34:01.315Z,65.22
2023-03-02T17:36:27.979Z,65.94
2023-03-02T17:38:54.550Z,65.74
2023-03-02T17:41:21.167Z,67.10
2023-03-02T17:43:47.935Z,67.05
2023-03-02T17:46:20.763Z,68.92
2023-03-02T17:48:49.851Z,68.84
2023-03-02T17:51:17.368Z,70.15
2023-03-02T17:53:46.184Z,69.63
2023-03-02T17:56:15.706Z,72.52
2023-03-02T17:58:45.319Z,72.57
2023-03-02T18:02:13.286Z,71.04
2023-03-02T18:04:14.793Z,71.35
2023-03-02T18:06:44.021Z,70.16
2023-03-02T18:09:12.017Z,70.08
2023-03-02T18:11:38.623Z,72.96
2023-03-02T18:14:05.326Z,69.74
2023-03-02T18:16:36.490Z,70.61
2023-03-02T18:19:03.114Z,70.09
2023-03-02T18:21:29.889Z,72.49
2023-03-02T18:23:57.831Z,75.95
2023-03-02T18:29:05.874Z,76.09
2023-03-02T18:31:42.607Z,78.40
2023-03-02T18:34:11.547Z,78.99
2023-03-02T18:36:38.500Z,80.09
2023-03-02T18:39:08.112Z,80.65
2023-03-02T18:41:34.615Z,80.83
2023-03-02T18:44:01.457Z,84.51
2023-03-02T18:46:30.589Z,88.37
2023-03-02T18:48:57.941Z,88.75
2023-03-02T18:51:25.590Z,87.17
2023-03-02T18:53:55.262Z,90.31
2023-03-02T18:56:22.851Z,87.54
2023-03-02T18:58:51.495Z,89.63
2023-03-02T19:01:18.408Z,90.26
2023-03-02T19:03:47.959Z,92.01
2023-03-02T19:06:15.344Z,90.80
2023-03-02T19:08:42.223Z,86.56
2023-03-02T19:11:09.003Z,88.85
2023-03-02T19:13:35.632Z,94.53
2023-03-02T19:16:08.007Z,94.42
2023-03-02T19:18:35.355Z,92.15
2023-03-02T19:21:04.299Z,94.06
2023-03-02T19:23:35.003Z,90.98
2023-03-02T19:26:03.325Z,95.40
2023-03-02T19:28:29.992Z,94.92
2023-03-02T19:30:56.843Z,92.08
2023-03-02T19:33:24.784Z,94.44
2023-03-02T19:36:06.265Z,94.49
2023-03-02T19:38:53.980Z,92.24
2023-03-02T19:41:23.860Z,89.66
2023-03-02T19:43:53.726Z,88.66
2023-03-02T19:46:20.380Z,89.14
2023-03-02T19:48:47.810Z,89.72
2023-03-02T19:51:15.760Z,88.57
2023-03-02T19:53:43.827Z,87.35
2023-03-02T19:56:14.337Z,88.04
2023-03-02T19:58:47.606Z,86.47
2023-03-02T20:01:26.662Z,88.27
2023-03-02T20:04:08.467Z,87.70
2023-03-02T20:12:27.082Z,89.32
2023-03-02T20:14:54.372Z,90.76
2023-03-02T20:17:21.137Z,94.59
2023-03-02T20:19:49.379Z,92.09
2023-03-02T20:22:16.610Z,96.92
2023-03-02T20:24:43.534Z,92.23
2023-03-02T20:27:12.693Z,98.45
2023-03-02T20:29:43.206Z,95.09
2023-03-02T20:32:12.563Z,95.82
2023-03-02T20:34:41.332Z,97.52
2023-03-02T20:37:08.460Z,96.21
2023-03-02T20:39:38.257Z,99.65
2023-03-02T20:42:06.598Z,100.00
2023-03-02T20:44:34.382Z,100.00
2023-03-02T20:47:08.323Z,100.00
2023-03-02T20:49:37.293Z,100.00
2023-03-02T20:52:05.596Z,100.00
2023-03-02T20:54:36.324Z,100.00
2023-03-02T20:57:05.358Z,100.00
2023-03-02T20:59:32.883Z,100.00
2023-03-02T21:02:00.143Z,100.00
2023-03-02T21:04:26.793Z,100.00
2023-03-02T21:06:53.523Z,100.00
2023-03-02T21:09:20.772Z,100.00
2023-03-02T21:11:48.101Z,100.00
2023-03-02T21:14:15.320Z,100.00
2023-03-02T21:16:43.666Z,100.00
2023-03-02T21:19:14.497Z,100.00
2023-03-02T21:21:42.572Z,100.00
2023-03-02T21:24:18.387Z,100.00
2023-03-02T21:26:46.503Z,100.00
2023-03-02T21:29:14.041Z,100.00
2023-03-02T21:31:42.302Z,100.00
2023-03-02T21:34:08.860Z,100.00
2023-03-02T21:36:35.551Z,100.00
2023-03-02T21:39:03.155Z,100.00
2023-03-02T21:41:29.936Z,100.00
2023-03-02T21:43:56.590Z,100.00
2023-03-02T21:46:23.681Z,100.00
2023-03-02T21:48:51.714Z,100.00
2023-03-02T21:51:18.685Z,100.00
2023-03-02T21:53:45.247Z,100.00
2023-03-02T21:56:20.479Z,100.00
2023-03-02T21:58:52.720Z,100.00
2023-03-02T22:01:19.926Z,100.00
2023-03-02T22:03:46.602Z,100.00
2023-03-02T22:06:25.590Z,100.00
2023-03-02T22:08:52.825Z,100.00
2023-03-02T22:11:38.560Z,100.00
2023-03-02T22:14:14.332Z,100.00
2023-03-02T22:16:45.102Z,100.00
2023-03-02T22:19:29.406Z,100.00
2023-03-02T22:22:00.509Z,100.00
2023-03-02T22:24:29.416Z,100.00
2023-03-02T22:27:21.873Z,100.00
2023-03-02T22:29:49.680Z,100.00
2023-03-02T22:32:24.441Z,100.00
2023-03-02T22:34:54.111Z,100.00
2023-03-02T22:37:23.432Z,100.00
2023-03-02T22:39:53.379Z,100.00
2023-03-02T22:42:26.942Z,100.00
2023-03-02T22:45:07.160Z,100.00
2023-03-02T22:47:33.685Z,100.00
2023-03-02T22:50:19.037Z,100.00
2023-03-02T22:52:45.607Z,100.00
2023-03-02T22:55:34.303Z,100.00
2023-03-02T22:58:25.471Z,100.00
2023-03-02T23:00:52.469Z,100.00
2023-03-02T23:03:21.828Z,100.00
2023-03-02T23:05:51.764Z,100.00
2023-03-02T23:08:23.006Z,100.00
2023-03-02T23:10:51.605Z,100.00
2023-03-02T23:13:21.354Z,100.00
2023-03-02T23:15:48.632Z,100.00
2023-03-02T23:18:23.191Z,100.00
2023-03-02T23:20:53.414Z,100.00
2023-03-02T23:23:22.064Z,100.00
2023-03-02T23:25:48.946Z,100.00
2023-03-02T23:28:15.510Z,100.00
2023-03-02T23:30:42.312Z,100.00
2023-03-02T23:33:09.099Z,100.00
2023-03-02T23:35:35.704Z,100.00
2023-03-02T23:38:02.280Z,100.00
2023-03-02T23:40:29.120Z,100.00
2023-03-02T23:42:56.084Z,100.00
2023-03-02T23:45:22.970Z,100.00
2023-03-02T23:47:49.585Z,100.00
2023-03-02T23:50:16.096Z,100.00
2023-03-02T23:52:42.627Z,100.00
2023-03-02T23:55:09.771Z,100.00
2023-03-02T23:57:36.310Z,100.00
